Time;durP1;ratioP1;P1;durP2;ratioP2;P2;SDS_P1;SDS_P2;PMS_P1;PMS_P2;Temp;Humidity;BMP_temperature;BMP_pressure;BME280_temperature;BME280_humidity;BME280_pressure;Samples;Min_cycle;Max_cycle;Signal;HPM_P1;HPM_P2
2023/03/12 06:00:10;;;;;;;;;4.00;2.00;;;;;12.36;80.06;-19541.91;6117375;23;46010;31
2023/03/12 06:02:35;;;;;;;;;7.00;4.00;;;;;12.38;79.72;-19542.31;4924653;28;46823;-94
2023/03/12 06:07:41;;;;;;;;;6.00;3.00;;;;;12.20;80.01;-19537.75;5002433;23;71547;-89
2023/03/12 06:10:07;;;;;;;;;5.00;3.00;;;;;12.16;79.68;-19536.66;4979051;28;45521;-89
2023/03/12 06:12:32;;;;;;;;;4.67;3.33;;;;;12.34;79.46;-19541.38;4997571;28;45373;-89
2023/03/12 06:14:57;;;;;;;;;8.67;3.00;;;;;12.05;79.70;-19533.69;4995582;28;46128;-88
2023/03/12 06:17:23;;;;;;;;;7.67;4.67;;;;;12.20;79.75;-19537.59;4977518;28;46182;-89
2023/03/12 06:19:52;;;;;;;;;9.33;2.33;;;;;11.92;79.41;-19530.19;4979040;28;45842;-89
2023/03/12 06:22:18;;;;;;;;;4.00;3.00;;;;;12.32;79.36;-19540.84;4984062;28;45570;-89
2023/03/12 06:24:46;;;;;;;;;8.33;4.00;;;;;11.96;79.61;-19531.41;4977159;28;46084;-89
2023/03/12 06:27:12;;;;;;;;;6.00;4.00;;;;;12.16;79.66;-19536.53;4994059;28;45493;-88
2023/03/12 06:29:37;;;;;;;;;11.00;4.00;;;;;12.14;79.69;-19535.97;4978632;28;45389;-89
2023/03/12 06:32:03;;;;;;;;;3.00;3.00;;;;;11.40;79.50;-19516.59;4996547;28;45284;-88
2023/03/12 06:34:28;;;;;;;;;4.00;3.00;;;;;11.69;79.56;-19524.25;4977945;28;47732;-89
2023/03/12 06:36:54;;;;;;;;;5.33;2.00;;;;;11.82;79.83;-19527.63;4975515;28;45448;-89
2023/03/12 06:39:19;;;;;;;;;7.00;5.00;;;;;12.25;79.81;-19539.09;4978360;28;45299;-89
2023/03/12 06:41:44;;;;;;;;;5.00;5.00;;;;;12.01;79.91;-19532.75;4979206;28;45628;-91
2023/03/12 06:44:10;;;;;;;;;4.00;2.00;;;;;11.97;79.79;-19531.69;4978583;28;47028;-90
2023/03/12 06:46:35;;;;;;;;;9.33;5.33;;;;;12.09;80.00;-19534.63;4977681;28;45538;-87
2023/03/12 06:49:01;;;;;;;;;6.00;3.00;;;;;12.38;79.98;-19542.44;4988180;28;45458;-87
2023/03/12 06:51:26;;;;;;;;;9.00;4.00;;;;;11.65;79.83;-19523.06;4997719;28;45344;-87
2023/03/12 06:53:52;;;;;;;;;6.00;3.67;;;;;12.52;80.19;-19546.09;4999493;28;47097;-87
2023/03/12 06:56:17;;;;;;;;;4.00;3.00;;;;;12.32;79.94;-19540.69;4991094;28;45445;-87
2023/03/12 06:58:43;;;;;;;;;8.67;4.33;;;;;12.44;80.20;-19544.06;4991729;28;45441;-87
2023/03/12 07:01:08;;;;;;;;;7.33;5.00;;;;;12.39;79.89;-19542.72;4984491;28;45539;-87
2023/03/12 07:03:34;;;;;;;;;8.67;5.00;;;;;12.29;79.88;-19540.03;4962064;28;48135;-89
2023/03/12 07:06:00;;;;;;;;;8.00;3.67;;;;;12.01;80.03;-19532.75;4983819;28;45340;-90
2023/03/12 07:08:29;;;;;;;;;6.00;4.00;;;;;12.66;80.32;-19549.84;4999536;28;45469;-88
2023/03/12 07:10:56;;;;;;;;;7.00;5.33;;;;;12.39;79.88;-19542.59;4980112;28;45576;-88
2023/03/12 07:13:21;;;;;;;;;8.00;4.33;;;;;12.44;79.66;-19544.06;4981279;28;47319;-88
2023/03/12 07:15:47;;;;;;;;;8.00;4.00;;;;;11.97;80.04;-19531.53;4997983;28;45502;-88
2023/03/12 07:18:12;;;;;;;;;6.33;5.00;;;;;12.49;79.67;-19545.13;4999077;28;45372;-88
2023/03/12 07:20:41;;;;;;;;;4.00;4.00;;;;;12.73;79.74;-19551.47;4998012;28;45380;-88
2023/03/12 07:23:07;;;;;;;;;6.33;5.00;;;;;12.28;79.28;-19539.75;4981018;28;47655;-88
2023/03/12 07:25:37;;;;;;;;;2.00;1.33;;;;;12.73;79.04;-19551.59;4998188;28;45293;-89
2023/03/12 07:28:03;;;;;;;;;6.00;4.33;;;;;12.32;78.66;-19540.84;4998064;28;45587;-88
2023/03/12 07:30:32;;;;;;;;;4.00;3.33;;;;;12.68;79.40;-19550.25;4997738;28;45549;-88
2023/03/12 07:33:02;;;;;;;;;4.00;4.00;;;;;11.94;78.92;-19530.88;4981071;28;47670;-88
2023/03/12 07:35:27;;;;;;;;;10.00;3.33;;;;;12.33;79.31;-19541.09;4981272;28;45993;-88
2023/03/12 07:37:53;;;;;;;;;9.00;3.67;;;;;12.74;79.04;-19551.75;4996604;28;45580;-89
2023/03/12 07:40:18;;;;;;;;;6.00;4.00;;;;;12.07;79.04;-19534.09;4965698;28;45382;-89
2023/03/12 07:42:43;;;;;;;;;2.67;1.00;;;;;12.42;78.83;-19543.38;4998854;28;46347;-89
2023/03/12 07:45:09;;;;;;;;;7.67;5.00;;;;;12.06;78.77;-19533.81;4997175;28;45642;-88
2023/03/12 07:47:35;;;;;;;;;4.00;3.50;;;;;12.59;78.42;-19547.84;4997668;28;45466;-89
2023/03/12 07:50:00;;;;;;;;;8.00;3.67;;;;;12.80;78.73;-19553.47;4987067;28;45479;-88
2023/03/12 07:52:26;;;;;;;;;13.67;4.33;;;;;12.23;78.72;-19538.41;4978959;28;46542;-88
2023/03/12 07:54:53;;;;;;;;;4.67;3.33;;;;;12.40;78.83;-19542.97;4981855;28;45426;-89
2023/03/12 07:57:18;;;;;;;;;5.00;3.33;;;;;12.58;78.37;-19547.56;4980746;28;45332;-89
2023/03/12 07:59:45;;;;;;;;;6.00;3.33;;;;;12.31;77.81;-19540.56;4993209;28;45536;-89
2023/03/12 08:02:11;;;;;;;;;5.00;4.00;;;;;13.04;77.57;-19559.66;4987268;28;45489;-89
2023/03/12 08:04:36;;;;;;;;;6.67;3.00;;;;;12.93;77.48;-19556.84;4997724;28;45657;-89
2023/03/12 08:07:02;;;;;;;;;6.00;3.00;;;;;13.32;77.27;-19566.94;4991631;28;45944;-90
2023/03/12 08:09:28;;;;;;;;;5.33;2.67;;;;;12.95;76.78;-19557.25;4979011;28;45738;-90
2023/03/12 08:11:53;;;;;;;;;6.67;5.67;;;;;12.53;76.87;-19546.22;4977517;28;47605;-89
2023/03/12 08:14:19;;;;;;;;;9.00;3.33;;;;;12.79;77.25;-19553.22;4979322;28;45472;-89
2023/03/12 08:16:44;;;;;;;;;6.00;2.00;;;;;13.40;76.92;-19569.09;4991263;28;45568;-87
2023/03/12 08:19:10;;;;;;;;;3.33;2.67;;;;;13.30;76.76;-19566.53;4998147;28;45431;-88
2023/03/12 08:21:35;;;;;;;;;5.33;3.33;;;;;12.47;76.25;-19544.72;4997905;28;45629;-88
2023/03/12 08:24:00;;;;;;;;;8.33;3.00;;;;;13.23;76.68;-19564.66;4993555;28;45860;-88
2023/03/12 08:26:26;;;;;;;;;5.67;2.00;;;;;13.32;76.46;-19566.94;4980546;28;45484;-89
2023/03/12 08:28:51;;;;;;;;;1.67;1.67;;;;;13.32;76.27;-19567.06;4980256;28;45502;-89
2023/03/12 08:31:17;;;;;;;;;4.00;2.67;;;;;13.18;76.09;-19563.31;4991730;28;45939;-89
2023/03/12 08:33:42;;;;;;;;;4.33;2.00;;;;;13.39;75.73;-19568.97;4990573;28;45367;-91
2023/03/12 08:36:09;;;;;;;;;7.67;5.33;;;;;13.72;75.77;-19577.69;4988260;28;45400;-89
2023/03/12 08:38:34;;;;;;;;;3.67;3.33;;;;;13.09;75.57;-19561.16;4966231;28;45339;-91
2023/03/12 08:41:00;;;;;;;;;4.00;3.67;;;;;13.59;75.91;-19574.06;4987325;28;47265;-91
2023/03/12 08:43:27;;;;;;;;;3.00;2.67;;;;;13.90;75.71;-19582.41;4998863;28;45382;-91
2023/03/12 08:45:57;;;;;;;;;3.33;3.00;;;;;13.73;75.65;-19577.97;4998919;28;45253;-91
2023/03/12 08:48:23;;;;;;;;;3.67;3.33;;;;;13.26;75.63;-19565.47;4976889;28;45369;-92
2023/03/12 08:50:49;;;;;;;;;4.00;1.67;;;;;14.01;75.07;-19585.22;4994908;28;45874;-92
2023/03/12 08:53:14;;;;;;;;;4.33;3.67;;;;;13.06;75.14;-19560.22;4971884;28;45908;-92
2023/03/12 08:55:40;;;;;;;;;2.33;1.67;;;;;14.11;74.90;-19587.91;4967530;28;45312;-91
2023/03/12 08:58:05;;;;;;;;;8.33;3.00;;;;;13.84;74.61;-19580.66;4979586;28;45905;-92
2023/03/12 09:00:30;;;;;;;;;2.00;1.33;;;;;13.73;74.77;-19577.97;4978519;28;47384;-91
2023/03/12 09:02:57;;;;;;;;;5.33;2.33;;;;;13.73;74.69;-19577.97;4998502;28;45375;-92
2023/03/12 09:05:28;;;;;;;;;1.00;1.00;;;;;14.27;74.50;-19592.06;4997090;28;45439;-92
2023/03/12 09:07:54;;;;;;;;;8.33;2.33;;;;;14.08;73.66;-19587.09;4970667;28;45554;-90
2023/03/12 09:10:21;;;;;;;;;12.67;4.00;;;;;14.40;73.10;-19595.28;4996028;28;46585;-90
2023/03/12 09:12:46;;;;;;;;;2.00;2.00;;;;;14.59;73.40;-19600.41;4996554;28;45269;-90
2023/03/12 09:15:12;;;;;;;;;2.00;1.00;;;;;14.71;72.98;-19603.50;4996280;28;45396;-90
2023/03/12 09:17:38;;;;;;;;;2.33;2.33;;;;;14.88;71.62;-19607.91;4984648;28;45157;-90
2023/03/12 09:20:07;;;;;;;;;2.00;2.00;;;;;14.85;71.50;-19607.25;4990887;28;45780;-89
2023/03/12 09:22:35;;;;;;;;;2.00;2.00;;;;;14.73;70.55;-19604.03;4978992;28;45392;-90
2023/03/12 09:25:05;;;;;;;;;4.67;1.33;;;;;13.61;69.69;-19574.59;4978747;28;45484;-90
2023/03/12 09:27:41;;;;;;;;;5.00;2.00;;;;;14.49;69.67;-19597.84;4971327;28;45627;-88
2023/03/12 09:30:09;;;;;;;;;5.67;1.33;;;;;14.17;68.92;-19589.25;4967566;28;47465;-89
2023/03/12 09:32:35;;;;;;;;;6.00;3.00;;;;;14.93;68.15;-19609.25;4977514;28;45368;-89
2023/03/12 09:35:00;;;;;;;;;4.33;2.67;;;;;15.17;68.76;-19615.72;4977646;28;45353;-90
2023/03/12 09:37:26;;;;;;;;;2.67;2.33;;;;;14.80;69.19;-19605.91;4993051;28;45549;-89
2023/03/12 09:39:52;;;;;;;;;3.00;2.00;;;;;14.48;67.47;-19597.44;4992362;28;45427;-88
2023/03/12 09:42:38;;;;;;;;;8.33;2.00;;;;;15.65;66.99;-19628.19;4993324;28;45297;-88
2023/03/12 09:45:06;;;;;;;;;5.00;3.00;;;;;15.71;66.93;-19629.78;4980574;28;45544;-88
2023/03/12 09:47:48;;;;;;;;;6.33;3.00;;;;;15.55;66.83;-19625.63;4996717;28;45412;-88
2023/03/12 09:50:27;;;;;;;;;1.67;1.00;;;;;15.62;65.63;-19627.38;4996672;28;45415;-89
2023/03/12 09:52:59;;;;;;;;;4.67;2.00;;;;;15.69;65.97;-19629.25;4977316;28;45380;-89
2023/03/12 09:55:27;;;;;;;;;5.00;3.33;;;;;15.56;65.33;-19625.91;4993537;28;45588;-90
2023/03/12 09:57:54;;;;;;;;;1.67;1.33;;;;;15.10;65.46;-19613.81;4995650;28;45590;-90
2023/03/12 10:00:23;;;;;;;;;2.00;2.00;;;;;15.38;65.61;-19621.22;4962226;28;47392;-90
2023/03/12 10:03:10;;;;;;;;;2.00;2.00;;;;;15.32;65.29;-19619.47;4967071;28;46035;-89
2023/03/12 10:05:44;;;;;;;;;2.00;2.00;;;;;15.63;65.70;-19627.63;4980577;28;45518;-89
2023/03/12 10:08:24;;;;;;;;;2.33;2.33;;;;;16.97;63.74;-19662.63;4985865;28;45711;-90
2023/03/12 10:11:14;;;;;;;;;4.33;3.00;;;;;19.53;58.05;-19729.59;4989556;28;45463;-92
2023/03/12 10:14:04;;;;;;;;;1.00;1.00;;;;;21.17;54.70;-19772.28;4977628;28;45563;-93
2023/03/12 10:16:32;;;;;;;;;1.00;1.00;;;;;22.06;51.13;-18108.25;4997240;28;45334;-91
2023/03/12 10:19:07;;;;;;;;;5.00;2.00;;;;;21.42;51.07;-15398.19;4976607;28;45727;-90
2023/03/12 10:22:13;;;;;;;;;3.50;1.25;;;;;21.26;51.54;-14384.22;4964588;28;47520;-91
2023/03/12 10:24:47;;;;;;;;;5.50;1.00;;;;;20.78;51.29;-12691.66;4932405;28;45446;-92
2023/03/12 10:27:17;;;;;;;;;2.75;2.00;;;;;20.43;51.70;-12012.97;4940066;28;45524;-90
2023/03/12 10:29:47;;;;;;;;;2.00;1.25;;;;;19.49;52.07;-10990.97;4938658;28;45580;-91
2023/03/12 10:32:18;;;;;;;;;3.00;1.25;;;;;19.60;53.48;-10655.97;4934749;28;48555;-95
2023/03/12 10:34:56;;;;;;;;;1.00;1.00;;;;;19.13;53.83;-9978.00;4938099;28;45477;-96
2023/03/12 10:37:30;;;;;;;;;2.00;2.00;;;;;18.70;54.22;-9301.31;4957262;28;45509;-94
2023/03/12 10:39:56;;;;;;;;;1.00;1.00;;;;;18.40;54.16;-8626.47;4928299;28;45553;-94
2023/03/12 10:42:27;;;;;;;;;4.25;1.25;;;;;17.81;54.40;-8621.50;4927314;28;48622;-90
2023/03/12 10:45:04;;;;;;;;;2.00;2.00;;;;;18.06;55.73;-9966.56;4941603;28;45589;-93
2023/03/12 10:47:38;;;;;;;;;3.25;1.25;;;;;17.95;56.62;-10636.56;4943116;28;45577;-93
2023/03/12 10:50:31;;;;;;;;;2.00;2.00;;;;;17.49;56.32;-9960.53;4934108;28;45452;-90
2023/03/12 10:53:24;;;;;;;;;2.00;2.00;;;;;17.56;56.54;-10296.62;4920365;28;47443;-90
2023/03/12 10:56:10;;;;;;;;;8.00;3.00;;;;;17.45;57.29;-10966.03;4923085;28;45486;-89
2023/03/12 10:58:41;;;;;;;;;2.25;2.25;;;;;17.34;57.05;-10964.72;4958705;28;45525;-95
2023/03/12 11:01:30;;;;;;;;;4.25;3.00;;;;;17.14;57.15;-10627.13;4973640;28;45757;-89
2023/03/12 11:04:16;;;;;;;;;3.00;2.00;;;;;16.95;57.90;-10624.84;4970875;28;48059;-91
2023/03/12 11:06:42;;;;;;;;;4.00;2.00;;;;;16.49;58.43;-10954.19;4993353;28;45361;-90
2023/03/12 11:09:18;;;;;;;;;3.00;2.00;;;;;16.13;58.79;-11284.34;4997057;28;46202;-93
2023/03/12 11:11:46;;;;;;;;;4.33;2.00;;;;;16.67;58.82;-11626.19;4978536;28;45617;-93
2023/03/12 11:14:18;;;;;;;;;1.67;1.00;;;;;16.43;58.83;-11957.56;4978245;28;47530;-93
2023/03/12 11:16:44;;;;;;;;;1.00;1.00;;;;;16.56;58.84;-11959.41;4981641;28;45442;-93
2023/03/12 11:19:25;;;;;;;;;3.67;1.33;;;;;16.28;59.26;-11955.44;4985053;28;45370;-94
2023/03/12 11:22:07;;;;;;;;;4.00;2.00;;;;;16.23;58.87;-11954.84;4980466;28;45590;-94
2023/03/12 11:24:33;;;;;;;;;3.00;3.00;;;;;16.32;59.16;-11956.06;4980494;28;47388;-90
2023/03/12 11:27:02;;;;;;;;;4.00;3.00;;;;;16.35;59.94;-12625.56;4989111;28;45446;-90
2023/03/12 11:29:38;;;;;;;;;2.00;2.00;;;;;16.45;59.42;-12627.16;4994223;28;45987;-89
2023/03/12 11:32:28;;;;;;;;;3.00;1.67;;;;;16.30;58.86;-12290.25;4988964;28;45289;-89
2023/03/12 11:34:54;;;;;;;;;1.33;1.33;;;;;16.28;58.29;-11620.91;4979819;28;46512;-94
2023/03/12 11:37:30;;;;;;;;;5.00;3.00;;;;;16.45;58.56;-11623.19;4968918;28;45557;-92
2023/03/12 11:40:20;;;;;;;;;2.67;1.33;;;;;16.37;58.59;-11622.16;4981598;28;45442;-92
2023/03/12 11:42:57;;;;;;;;;4.00;3.33;;;;;16.33;59.02;-11956.13;4995204;28;45799;-91
2023/03/12 11:45:58;;;;;;;;;5.00;2.00;;;;;15.47;58.92;-11944.16;4994243;28;47994;-91
2023/03/12 11:49:14;;;;;;;;;4.00;3.00;;;;;16.25;59.39;-11955.13;4993301;28;45532;-88
2023/03/12 11:51:42;;;;;;;;;2.33;2.00;;;;;16.27;59.37;-11955.28;4937311;28;45482;-88
2023/03/12 11:54:20;;;;;;;;;4.00;4.00;;;;;16.29;59.83;-12624.63;4930932;28;45516;-88
2023/03/12 11:56:50;;;;;;;;;7.67;2.00;;;;;16.36;58.70;-12291.22;4933315;28;46840;-88
2023/03/12 11:59:18;;;;;;;;;3.67;3.00;;;;;16.51;59.13;-12293.31;4936634;28;45525;-88
2023/03/12 12:01:58;;;;;;;;;1.33;1.33;;;;;16.59;58.05;-11959.78;4930264;28;45551;-89
2023/03/12 12:04:43;;;;;;;;;1.50;1.00;;;;;16.76;58.39;-12297.00;4932310;28;45542;-88
2023/03/12 12:07:35;;;;;;;;;1.75;1.25;;;;;16.86;57.56;-11963.53;4936621;28;46451;-94
2023/03/12 12:10:21;;;;;;;;;2.25;1.00;;;;;16.51;56.86;-11624.00;4936889;28;45468;-94
2023/03/12 12:12:58;;;;;;;;;4.33;3.33;;;;;17.01;55.76;-10290.50;4935704;28;45880;-94
2023/03/12 12:16:00;;;;;;;;;4.00;3.00;;;;;17.08;55.46;-9956.19;4937935;28;45378;-93
2023/03/12 12:18:29;;;;;;;;;2.00;1.00;;;;;17.03;54.64;-8950.09;4914740;28;47394;-95
2023/03/12 12:21:06;;;;;;;;;4.50;1.75;;;;;17.00;55.11;-9285.00;4939101;28;45287;-93
2023/03/12 12:23:53;;;;;;;;;1.00;1.00;;;;;17.32;54.91;-9623.41;4935823;28;45496;-92
2023/03/12 12:26:31;;;;;;;;;2.25;1.25;;;;;18.00;54.32;-10301.63;4926984;28;45531;-94
2023/03/12 12:29:24;;;;;;;;;3.00;2.00;;;;;18.80;53.71;-10982.53;4964801;28;46814;-93
2023/03/12 12:31:57;;;;;;;;;4.00;1.25;;;;;18.89;51.57;-8294.38;4981417;28;45584;-95
2023/03/12 12:34:25;;;;;;;;;3.25;1.00;;;;;18.94;51.48;-7285.75;4981592;28;45413;-94
2023/03/12 12:37:17;;;;;;;;;2.00;2.00;;;;;18.52;51.35;-6610.66;4999574;28;45486;-95
2023/03/12 12:39:50;;;;;;;;;2.75;1.00;;;;;18.81;51.18;-5939.38;4998310;28;46219;-93
2023/03/12 12:42:23;;;;;;;;;1.00;1.00;;;;;18.86;50.35;-6612.44;4995972;28;45527;-92
2023/03/12 12:44:52;;;;;;;;;3.00;2.00;;;;;19.34;50.35;-6278.31;4976130;28;45575;-93
2023/03/12 12:47:28;;;;;;;;;1.00;1.00;;;;;19.42;49.79;-5941.94;4972590;28;45997;-92
2023/03/12 12:49:57;;;;;;;;;3.00;2.00;;;;;19.57;49.89;-4594.91;4967467;28;47147;-94
2023/03/12 12:52:23;;;;;;;;;2.75;2.00;;;;;19.17;50.23;-3920.53;4970855;28;45524;-95
2023/03/12 12:55:26;;;;;;;;;1.00;1.00;;;;;19.50;50.49;-3920.84;4972000;28;45438;-91
2023/03/12 12:58:17;;;;;;;;;4.50;2.25;;;;;18.56;50.34;-3919.94;4974452;28;45520;-92
2023/03/12 13:00:46;;;;;;;;;3.75;1.00;;;;;19.90;50.10;-4595.56;4994696;28;47718;-94
2023/03/12 13:03:20;;;;;;;;;1.50;1.00;;;;;18.96;49.67;-3246.88;4994365;28;45387;-93
2023/03/12 13:05:52;;;;;;;;;4.25;1.50;;;;;19.67;49.92;-2572.44;4993858;28;45474;-91
2023/03/12 13:08:39;;;;;;;;;4.00;3.00;;;;;19.79;49.66;-2235.03;4989385;28;45477;-93
2023/03/12 13:11:05;;;;;;;;;3.75;2.50;;;;;19.99;49.18;-2909.41;4995800;28;48242;-93
2023/03/12 13:13:31;;;;;;;;;3.50;1.25;;;;;19.98;48.84;-1897.28;4998473;28;45439;-94
2023/03/12 13:16:32;;;;;;;;;2.50;1.25;;;;;19.74;49.21;-210.97;4992430;28;45421;-93
2023/03/12 13:19:07;;;;;;;;;1.50;1.50;;;;;19.54;48.76;1137.59;4993145;28;45583;-94
2023/03/12 13:21:37;;;;;;;;;3.00;1.25;;;;;19.50;48.04;2824.84;4971677;28;47456;-94
2023/03/12 13:24:05;;;;;;;;;1.00;1.00;;;;;19.38;48.39;3836.41;4988257;28;45546;-94
2023/03/12 13:26:42;;;;;;;;;3.25;0.50;;;;;19.33;48.65;3498.28;4981003;28;45490;-92
2023/03/12 13:29:20;;;;;;;;;2.25;1.25;;;;;19.27;48.21;4510.22;4981412;28;45502;-94
2023/03/12 13:31:45;;;;;;;;;3.50;1.00;;;;;18.62;48.87;4164.88;4975260;28;47078;-94
2023/03/12 13:34:41;;;;;;;;;2.50;2.00;;;;;19.13;49.38;4508.50;4995390;28;45386;-94
2023/03/12 13:37:19;;;;;;;;;2.00;2.00;;;;;19.04;49.88;4507.34;4979638;28;45408;-94
2023/03/12 13:39:44;;;;;;;;;2.75;0.00;;;;;18.87;50.08;4167.94;4980971;28;45634;-94
2023/03/12 13:42:22;;;;;;;;;1.25;1.00;;;;;18.90;49.59;4843.13;4975654;28;47293;-92
2023/03/12 13:44:48;;;;;;;;;1.00;1.00;;;;;18.67;49.76;6189.59;4969602;28;45688;-92
2023/03/12 13:47:27;;;;;;;;;5.00;1.75;;;;;18.53;49.50;6862.28;4993014;28;45691;-93
2023/03/12 13:49:55;;;;;;;;;4.75;2.00;;;;;18.07;50.07;6517.59;4980312;28;45384;-94
2023/03/12 13:52:23;;;;;;;;;1.75;1.00;;;;;18.30;49.75;7533.09;4976915;28;46949;-91
2023/03/12 13:54:58;;;;;;;;;2.00;2.00;;;;;17.79;50.20;8198.53;4974832;28;46489;-92
2023/03/12 13:57:31;;;;;;;;;1.75;1.75;;;;;18.15;50.24;7530.53;4977595;28;45426;-93
2023/03/12 13:59:58;;;;;;;;;5.25;2.00;;;;;17.77;50.98;6512.94;4976035;28;45566;-93
2023/03/12 14:02:31;;;;;;;;;2.67;2.33;;;;;17.31;51.25;6169.03;4992329;28;46286;-90
2023/03/12 14:05:09;;;;;;;;;2.00;1.00;;;;;17.73;51.63;5501.56;4978640;28;46886;-88
2023/03/12 14:07:48;;;;;;;;;2.25;1.00;;;;;18.07;51.56;5506.38;4988216;28;45801;-89
2023/03/12 14:10:35;;;;;;;;;1.00;1.00;;;;;18.25;51.88;4497.53;4980842;28;45571;-89
2023/03/12 14:13:37;;;;;;;;;2.25;1.00;;;;;18.23;51.10;5171.50;4988785;28;45538;-88
2023/03/12 14:16:19;;;;;;;;;1.25;1.25;;;;;17.75;51.19;5165.00;4992777;28;45592;-89
2023/03/12 14:18:46;;;;;;;;;2.33;2.33;;;;;18.12;51.98;3822.09;4991774;28;45570;-88
2023/03/12 14:21:16;;;;;;;;;1.50;1.50;;;;;17.42;52.17;3814.16;4973812;28;45506;-90
2023/03/12 14:24:01;;;;;;;;;3.50;2.50;;;;;17.65;52.11;3480.09;4992566;28;45618;-89
2023/03/12 14:26:32;;;;;;;;;4.67;2.00;;;;;17.87;52.65;2808.94;4992017;28;45852;-88
2023/03/12 14:29:09;;;;;;;;;1.67;1.67;;;;;18.04;52.66;2810.63;4991015;28;45503;-87
2023/03/12 14:31:36;;;;;;;;;1.67;1.67;;;;;17.48;53.26;2805.16;4990561;28;45345;-87
2023/03/12 14:34:09;;;;;;;;;2.50;1.50;;;;;17.94;53.00;2136.22;4995067;28;45329;-88
2023/03/12 14:36:41;;;;;;;;;4.25;1.25;;;;;17.31;53.15;2803.53;4992991;28;45810;-92
2023/03/12 14:39:25;;;;;;;;;1.00;1.00;;;;;17.65;52.80;3143.41;4980287;28;45470;-95
2023/03/12 14:42:05;;;;;;;;;1.75;1.00;;;;;17.89;52.84;3145.88;4979387;28;45543;-95
2023/03/12 14:44:36;;;;;;;;;3.50;1.00;;;;;17.86;53.20;2808.91;4995356;28;47475;-91
2023/03/12 14:47:11;;;;;;;;;5.00;2.00;;;;;17.08;53.64;1792.63;4978593;28;45814;-90
2023/03/12 14:49:45;;;;;;;;;4.00;2.00;;;;;17.92;53.35;2136.03;4996147;28;45484;-92
2023/03/12 14:52:12;;;;;;;;;1.00;1.00;;;;;17.94;52.98;2136.22;4995897;28;45475;-93
2023/03/12 14:54:40;;;;;;;;;2.00;2.00;;;;;17.98;52.97;2136.56;4995782;28;45684;-91
2023/03/12 14:57:14;;;;;;;;;3.00;2.00;;;;;17.67;52.45;3143.66;4990862;28;45438;-90
2023/03/12 14:59:39;;;;;;;;;2.00;2.00;;;;;17.87;52.42;2809.00;4972822;28;45429;-89
2023/03/12 15:02:17;;;;;;;;;2.50;0.75;;;;;17.87;52.34;3482.41;4991774;28;45452;-90
2023/03/12 15:04:44;;;;;;;;;4.75;1.50;;;;;17.67;52.27;3480.31;4991717;28;46679;-89
2023/03/12 15:07:12;;;;;;;;;2.25;2.25;;;;;17.40;51.82;4487.06;4976296;28;45615;-87
2023/03/12 15:09:41;;;;;;;;;3.50;2.00;;;;;18.04;51.47;4158.00;4975274;28;45692;-88
2023/03/12 15:12:17;;;;;;;;;0.00;0.00;;;;;18.02;51.54;4831.63;4994998;28;45923;-88
2023/03/12 15:14:42;;;;;;;;;2.75;1.00;;;;;17.52;51.73;4488.56;4994789;28;47196;-88
2023/03/12 15:17:15;;;;;;;;;3.00;3.00;;;;;17.95;51.57;4830.75;4992872;28;45490;-88
2023/03/12 15:19:41;;;;;;;;;1.00;1.00;;;;;17.79;51.80;4491.81;4975279;28;45658;-87
2023/03/12 15:22:19;;;;;;;;;1.50;1.00;;;;;17.49;51.74;4824.78;4996913;28;45473;-89
2023/03/12 15:24:45;;;;;;;;;1.00;1.00;;;;;17.84;52.03;4829.28;4996648;28;46308;-88
2023/03/12 15:27:37;;;;;;;;;5.00;2.25;;;;;17.77;52.91;4154.78;4991228;28;45444;-90
2023/03/12 15:30:22;;;;;;;;;1.00;1.00;;;;;17.11;52.91;4483.44;4989764;28;45660;-90
2023/03/12 15:33:08;;;;;;;;;2.75;1.25;;;;;17.58;52.84;4152.53;4972284;28;45599;-89
2023/03/12 15:35:35;;;;;;;;;2.00;2.00;;;;;17.17;52.92;4147.69;4988064;28;47551;-89
2023/03/12 15:38:01;;;;;;;;;1.75;0.50;;;;;17.37;53.31;3813.50;4992988;28;45566;-89
2023/03/12 15:40:29;;;;;;;;;2.00;2.00;;;;;17.49;53.31;3814.91;4976757;28;45431;-89
2023/03/12 15:43:00;;;;;;;;;2.00;1.00;;;;;17.21;54.00;3138.91;4976819;28;45448;-89
2023/03/12 15:45:38;;;;;;;;;1.75;1.25;;;;;17.34;54.04;3813.22;4995242;28;45579;-89
2023/03/12 15:48:31;;;;;;;;;8.00;4.33;;;;;17.03;54.27;3473.38;4984919;28;45424;-90
2023/03/12 15:50:57;;;;;;;;;5.25;1.25;;;;;16.82;54.43;3134.94;4996874;28;45462;-91
2023/03/12 15:53:29;;;;;;;;;2.00;2.00;;;;;16.76;54.55;2798.22;4997767;28;45487;-91
2023/03/12 15:56:20;;;;;;;;;4.75;3.00;;;;;17.00;55.13;2128.09;4995682;28;47513;-91
2023/03/12 15:58:45;;;;;;;;;1.25;1.25;;;;;16.82;55.15;1790.50;4996351;28;45444;-91
2023/03/12 16:01:16;;;;;;;;;5.33;3.00;;;;;17.04;55.52;1456.09;4979552;28;45492;-90
2023/03/12 16:03:44;;;;;;;;;3.67;3.00;;;;;16.97;55.47;1119.47;4995404;28;45471;-90
2023/03/12 16:06:25;;;;;;;;;8.33;2.67;;;;;16.92;55.78;447.13;4974326;28;48088;-91
2023/03/12 16:08:59;;;;;;;;;3.00;3.00;;;;;16.85;56.28;110.78;4973469;28;45514;-90
2023/03/12 16:11:27;;;;;;;;;3.33;2.33;;;;;16.85;56.42;-896.88;4988783;28;45584;-91
2023/03/12 16:14:02;;;;;;;;;8.00;3.00;;;;;16.78;56.56;-897.13;4971197;28;45565;-89
2023/03/12 16:16:28;;;;;;;;;5.25;2.00;;;;;15.83;56.23;-565.38;4986877;28;45591;-90
2023/03/12 16:18:53;;;;;;;;;4.67;1.33;;;;;16.40;56.31;-562.94;4994877;28;45442;-88
2023/03/12 16:21:18;;;;;;;;;3.00;2.00;;;;;16.63;56.33;-561.97;4997098;28;45352;-88
2023/03/12 16:23:44;;;;;;;;;4.33;2.33;;;;;16.33;56.28;-898.81;4996585;28;45601;-89
2023/03/12 16:26:12;;;;;;;;;2.00;2.00;;;;;16.24;55.98;-228.06;4994298;28;45486;-87
2023/03/12 16:28:38;;;;;;;;;3.00;1.00;;;;;16.16;56.44;-563.97;4975698;28;45902;-89
2023/03/12 16:31:10;;;;;;;;;2.67;2.00;;;;;16.41;56.45;-562.88;4990463;28;45881;-88
2023/03/12 16:33:35;;;;;;;;;7.67;6.00;;;;;16.13;56.43;-899.56;4992033;28;45608;-88
2023/03/12 16:36:01;;;;;;;;;6.00;4.00;;;;;16.53;56.70;-1233.72;4990940;28;45476;-88
2023/03/12 16:38:26;;;;;;;;;3.67;2.33;;;;;15.97;56.65;-1235.50;4994983;28;45355;-88
2023/03/12 16:40:52;;;;;;;;;4.00;2.67;;;;;16.22;56.74;-1234.69;4996143;28;45380;-89
2023/03/12 16:43:21;;;;;;;;;5.00;2.00;;;;;16.48;56.87;-1569.47;4978181;28;45587;-88
2023/03/12 16:45:48;;;;;;;;;1.75;1.00;;;;;15.75;57.61;-1906.56;4993902;28;46511;-88
2023/03/12 16:48:16;;;;;;;;;4.67;2.00;;;;;16.35;57.18;-2240.75;4970688;28;45519;-88
2023/03/12 16:50:48;;;;;;;;;4.50;3.25;;;;;16.31;57.86;-2576.25;4992834;28;45533;-87
2023/03/12 16:53:14;;;;;;;;;2.00;2.00;;;;;15.87;57.99;-3246.97;4990553;28;45320;-88
2023/03/12 16:55:50;;;;;;;;;3.00;1.75;;;;;16.25;58.21;-3582.25;4989930;28;47586;-88
2023/03/12 16:58:18;;;;;;;;;2.67;2.33;;;;;16.12;58.69;-4252.53;4987439;28;45370;-88
2023/03/12 17:00:44;;;;;;;;;4.00;2.33;;;;;16.00;58.88;-4922.47;4977126;28;46384;-88
2023/03/12 17:03:31;;;;;;;;;5.00;3.67;;;;;15.74;59.12;-5591.47;4977435;28;45582;-88
2023/03/12 17:05:56;;;;;;;;;0.25;0.25;;;;;16.19;59.08;-5928.22;4991258;28;48494;-88
2023/03/12 17:08:22;;;;;;;;;3.00;2.00;;;;;16.16;59.20;-6263.09;4984257;28;45648;-88
2023/03/12 17:10:47;;;;;;;;;3.67;2.00;;;;;15.04;59.54;-6592.06;4987182;28;45584;-88
2023/03/12 17:13:34;;;;;;;;;1.25;1.25;;;;;15.95;59.67;-6931.78;4994384;28;45510;-88
2023/03/12 17:15:59;;;;;;;;;2.67;2.00;;;;;15.60;59.77;-7264.38;4992940;28;45524;-89
2023/03/12 17:18:25;;;;;;;;;2.33;2.00;;;;;16.09;59.83;-7602.34;4996663;28;45368;-88
2023/03/12 17:20:50;;;;;;;;;3.67;2.33;;;;;15.83;59.95;-7600.59;4993806;28;45407;-88
2023/03/12 17:23:15;;;;;;;;;3.25;2.25;;;;;16.00;59.97;-7936.50;4989849;28;45468;-88
2023/03/12 17:25:42;;;;;;;;;3.50;2.50;;;;;15.96;60.54;-8270.97;4974546;28;47421;-88
2023/03/12 17:28:08;;;;;;;;;0.00;0.00;;;;;15.13;60.83;-8932.72;4996188;28;45471;-89
2023/03/12 17:30:34;;;;;;;;;4.33;3.00;;;;;15.79;60.39;-8938.81;4995372;28;45591;-89
2023/03/12 17:33:11;;;;;;;;;6.67;4.00;;;;;15.96;60.87;-9274.94;4970061;28;45360;-89
2023/03/12 17:35:38;;;;;;;;;6.00;3.67;;;;;15.95;60.78;-9609.44;4995537;28;45419;-88
2023/03/12 17:38:04;;;;;;;;;4.00;2.00;;;;;15.37;60.72;-9937.81;4995878;28;45462;-88
2023/03/12 17:40:29;;;;;;;;;6.67;3.33;;;;;15.54;61.20;-9939.66;4997280;28;45531;-88
2023/03/12 17:42:55;;;;;;;;;5.00;5.00;;;;;15.70;61.00;-10275.78;4985352;28;45471;-88
2023/03/12 17:45:21;;;;;;;;;2.33;2.33;;;;;15.70;61.35;-10610.19;4996040;28;46075;-88
2023/03/12 17:47:46;;;;;;;;;5.00;3.00;;;;;15.43;61.44;-10606.97;4996108;28;45463;-88
2023/03/12 17:50:12;;;;;;;;;6.33;4.00;;;;;15.20;61.24;-10938.34;4977046;28;45875;-88
2023/03/12 17:52:37;;;;;;;;;9.33;3.33;;;;;15.01;61.99;-11269.94;4995707;28;45705;-88
2023/03/12 17:55:04;;;;;;;;;4.00;2.67;;;;;15.61;61.68;-11277.75;4995948;28;45981;-88